Time;durP1;ratioP1;P1;durP2;ratioP2;P2;SDS_P1;SDS_P2;PMS_P1;PMS_P2;Temp;Humidity;BMP_temperature;BMP_pressure;BME280_temperature;BME280_humidity;BME280_pressure;Samples;Min_cycle;Max_cycle;Signal;HPM_P1;HPM_P2
2022/09/26 00:02:13;;;;;;;0.30;0.30;;;;;;;;;;7395568;19;20515;-91
2022/09/26 00:04:38;;;;;;;0.30;0.30;;;;;;;;;;7396986;19;20113;-91
2022/09/26 00:07:04;;;;;;;0.20;0.20;;;;;;;;;;7393371;19;20144;-93
2022/09/26 00:09:29;;;;;;;0.30;0.30;;;;;;;;;;7395469;19;20217;-92
2022/09/26 00:11:55;;;;;;;0.20;0.20;;;;;;;;;;7396416;19;20181;-92
2022/09/26 00:14:23;;;;;;;0.30;0.30;;;;;;;;;;7392752;19;20478;-92
2022/09/26 00:16:58;;;;;;;0.30;0.30;;;;;;;;;;7390869;19;20148;-92
2022/09/26 00:19:23;;;;;;;0.30;0.30;;;;;;;;;;7387692;19;20137;-90
2022/09/26 00:21:49;;;;;;;0.23;0.23;;;;;;;;;;7388851;19;20168;-91
2022/09/26 00:24:14;;;;;;;0.20;0.20;;;;;;;;;;7391954;19;20125;-92
2022/09/26 00:26:39;;;;;;;0.20;0.20;;;;;;;;;;7388881;19;20121;-91
2022/09/26 00:29:07;;;;;;;0.27;0.27;;;;;;;;;;7390056;19;20605;-91
2022/09/26 00:31:38;;;;;;;0.30;0.30;;;;;;;;;;7390565;19;20129;-92
2022/09/26 00:34:03;;;;;;;0.30;0.30;;;;;;;;;;7389735;19;20121;-91
2022/09/26 00:36:29;;;;;;;0.30;0.30;;;;;;;;;;7385937;19;20347;-91
2022/09/26 00:38:55;;;;;;;0.30;0.30;;;;;;;;;;7389836;19;20152;-91
2022/09/26 00:41:20;;;;;;;0.23;0.23;;;;;;;;;;7393252;19;20121;-91
2022/09/26 00:43:51;;;;;;;0.20;0.20;;;;;;;;;;7392218;19;20149;-90
2022/09/26 00:46:34;;;;;;;0.30;0.30;;;;;;;;;;7391096;19;20133;-91
2022/09/26 00:49:35;;;;;;;0.30;0.30;;;;;;;;;;7393159;19;20609;-90
2022/09/26 00:52:06;;;;;;;0.30;0.30;;;;;;;;;;7392819;19;20129;-90
2022/09/26 00:54:33;;;;;;;0.30;0.30;;;;;;;;;;7395315;19;20132;-92
2022/09/26 00:57:05;;;;;;;0.20;0.20;;;;;;;;;;7394755;19;20132;-90
2022/09/26 00:59:34;;;;;;;0.30;0.30;;;;;;;;;;7395279;19;20165;-90
2022/09/26 01:02:00;;;;;;;0.30;0.30;;;;;;;;;;7389320;19;20161;-92
2022/09/26 01:04:27;;;;;;;0.30;0.30;;;;;;;;;;7388281;19;20601;-90
2022/09/26 01:06:58;;;;;;;0.30;0.30;;;;;;;;;;7387338;19;20136;-90
2022/09/26 01:09:24;;;;;;;0.20;0.20;;;;;;;;;;7391739;19;20148;-91
2022/09/26 01:11:50;;;;;;;0.30;0.30;;;;;;;;;;7388271;19;20164;-92
2022/09/26 01:14:15;;;;;;;0.30;0.30;;;;;;;;;;7391948;19;20124;-90
2022/09/26 01:16:43;;;;;;;0.30;0.30;;;;;;;;;;7391019;19;20117;-89
2022/09/26 01:19:20;;;;;;;0.30;0.30;;;;;;;;;;7388841;19;20117;-91
2022/09/26 01:22:14;;;;;;;0.30;0.30;;;;;;;;;;7395001;19;20156;-90
2022/09/26 01:24:57;;;;;;;0.30;0.30;;;;;;;;;;7392861;19;20117;-90
2022/09/26 01:27:26;;;;;;;0.20;0.20;;;;;;;;;;7395675;19;20660;-90
2022/09/26 01:30:00;;;;;;;0.30;0.30;;;;;;;;;;7395729;19;20121;-91
2022/09/26 01:32:48;;;;;;;0.30;0.30;;;;;;;;;;7397402;19;20167;-90
2022/09/26 01:35:17;;;;;;;0.30;0.30;;;;;;;;;;7400926;19;20117;-91
2022/09/26 01:37:54;;;;;;;0.20;0.20;;;;;;;;;;7408891;19;20695;-90
2022/09/26 01:40:30;;;;;;;0.20;0.20;;;;;;;;;;7413484;19;20370;-93
2022/09/26 01:43:22;;;;;;;0.30;0.30;;;;;;;;;;7409310;19;20152;-91
2022/09/26 01:45:58;;;;;;;0.20;0.20;;;;;;;;;;7410300;19;20136;-89
2022/09/26 01:48:29;;;;;;;0.30;0.30;;;;;;;;;;7412831;19;20129;-90
2022/09/26 01:51:11;;;;;;;0.30;0.30;;;;;;;;;;7411345;19;20808;-92
2022/09/26 01:53:42;;;;;;;0.30;0.30;;;;;;;;;;7407636;19;20164;-90
2022/09/26 01:56:13;;;;;;;0.30;0.30;;;;;;;;;;7400986;19;20114;-90
2022/09/26 01:58:44;;;;;;;0.40;0.40;;;;;;;;;;7398621;19;20154;-90
2022/09/26 02:01:11;;;;;;;0.30;0.30;;;;;;;;;;7398950;19;20145;-90
2022/09/26 02:03:42;;;;;;;0.30;0.30;;;;;;;;;;7399550;19;20163;-90
2022/09/26 02:06:10;;;;;;;0.30;0.30;;;;;;;;;;7402260;19;20113;-90
2022/09/26 02:08:39;;;;;;;0.20;0.20;;;;;;;;;;7400916;19;20121;-90
2022/09/26 02:11:09;;;;;;;0.20;0.20;;;;;;;;;;7399917;19;20146;-90
2022/09/26 02:13:48;;;;;;;0.30;0.30;;;;;;;;;;7399665;19;20633;-90
2022/09/26 02:16:19;;;;;;;0.20;0.20;;;;;;;;;;7400222;19;20567;-90
2022/09/26 02:18:57;;;;;;;0.30;0.30;;;;;;;;;;7399808;19;20861;-91
2022/09/26 02:21:23;;;;;;;0.30;0.30;;;;;;;;;;7396621;19;20117;-89
2022/09/26 02:23:50;;;;;;;0.30;0.30;;;;;;;;;;7400507;19;20129;-91
2022/09/26 02:26:15;;;;;;;0.30;0.30;;;;;;;;;;7394583;19;20166;-91
2022/09/26 02:28:41;;;;;;;0.30;0.30;;;;;;;;;;7398440;19;20120;-91
2022/09/26 02:31:07;;;;;;;0.30;0.30;;;;;;;;;;7397414;19;20117;-90
2022/09/26 02:33:33;;;;;;;0.30;0.30;;;;;;;;;;7398798;19;20148;-91
2022/09/26 02:35:58;;;;;;;0.30;0.30;;;;;;;;;;7399355;19;20636;-90
2022/09/26 02:38:29;;;;;;;0.20;0.20;;;;;;;;;;7398087;19;20128;-90
2022/09/26 02:40:59;;;;;;;2.47;2.27;;;;;;;;;;7395536;19;20128;-91
2022/09/26 02:43:34;;;;;;;0.20;0.20;;;;;;;;;;7398980;19;20181;-90
2022/09/26 02:46:20;;;;;;;0.30;0.30;;;;;;;;;;7396683;19;20129;-92
2022/09/26 02:49:15;;;;;;;0.30;0.30;;;;;;;;;;7398283;19;20142;-90
2022/09/26 02:52:24;;;;;;;0.20;0.20;;;;;;;;;;7396520;19;21178;-90
2022/09/26 02:55:19;;;;;;;0.30;0.30;;;;;;;;;;7397484;19;20196;-91
2022/09/26 02:57:53;;;;;;;0.30;0.30;;;;;;;;;;7404983;19;20113;-90
2022/09/26 03:00:22;;;;;;;0.97;0.90;;;;;;;;;;7406204;19;20125;-89
2022/09/26 03:03:08;;;;;;;0.30;0.30;;;;;;;;;;7404004;19;20189;-90
2022/09/26 03:05:35;;;;;;;0.30;0.30;;;;;;;;;;7405017;19;20128;-91
2022/09/26 03:08:10;;;;;;;0.30;0.30;;;;;;;;;;7405338;19;20129;-90
2022/09/26 03:10:36;;;;;;;0.33;0.33;;;;;;;;;;7404047;19;20147;-91
2022/09/26 03:13:05;;;;;;;0.20;0.20;;;;;;;;;;7402953;19;20167;-90
2022/09/26 03:15:32;;;;;;;0.30;0.30;;;;;;;;;;7400021;19;20117;-91
2022/09/26 03:17:58;;;;;;;0.30;0.30;;;;;;;;;;7406038;19;20172;-89
2022/09/26 03:20:24;;;;;;;0.30;0.30;;;;;;;;;;7405777;19;20162;-89
2022/09/26 03:22:50;;;;;;;0.30;0.30;;;;;;;;;;7405106;19;20149;-90
2022/09/26 03:25:20;;;;;;;0.30;0.30;;;;;;;;;;7405818;19;20632;-90
2022/09/26 03:27:46;;;;;;;0.50;0.50;;;;;;;;;;7407250;19;20186;-91
2022/09/26 03:30:13;;;;;;;0.53;0.53;;;;;;;;;;7405916;19;20145;-90
2022/09/26 03:32:39;;;;;;;0.30;0.30;;;;;;;;;;7406548;19;20121;-90
2022/09/26 03:35:05;;;;;;;0.30;0.30;;;;;;;;;;7395814;19;20130;-90
2022/09/26 03:37:33;;;;;;;0.30;0.30;;;;;;;;;;7392566;19;20152;-90
2022/09/26 03:39:58;;;;;;;0.30;0.30;;;;;;;;;;7412589;19;20161;-92
2022/09/26 03:42:23;;;;;;;0.30;0.30;;;;;;;;;;7419320;19;20152;-91
2022/09/26 03:44:48;;;;;;;0.30;0.30;;;;;;;;;;7425602;19;20213;-93
2022/09/26 03:47:16;;;;;;;0.30;0.30;;;;;;;;;;7425853;19;20140;-92
2022/09/26 03:49:42;;;;;;;3.47;1.20;;;;;;;;;;7410388;19;20130;-90
2022/09/26 03:52:11;;;;;;;0.30;0.30;;;;;;;;;;7397500;19;20152;-90
2022/09/26 03:54:37;;;;;;;0.30;0.30;;;;;;;;;;7399963;19;20113;-90
2022/09/26 03:57:02;;;;;;;0.30;0.30;;;;;;;;;;7399186;19;20134;-90
2022/09/26 03:59:28;;;;;;;0.20;0.20;;;;;;;;;;7399938;19;20609;-90
2022/09/26 04:01:56;;;;;;;0.30;0.30;;;;;;;;;;7396165;19;20169;-89
2022/09/26 04:04:22;;;;;;;0.30;0.30;;;;;;;;;;7400942;19;20496;-91
2022/09/26 04:06:50;;;;;;;0.30;0.30;;;;;;;;;;7402955;19;20129;-90
2022/09/26 04:09:16;;;;;;;0.20;0.20;;;;;;;;;;7401155;19;20132;-91
2022/09/26 04:11:42;;;;;;;0.70;0.70;;;;;;;;;;7399643;19;20165;-93
2022/09/26 04:14:08;;;;;;;0.30;0.30;;;;;;;;;;7403423;19;20133;-91
2022/09/26 04:16:35;;;;;;;0.30;0.30;;;;;;;;;;7402108;19;20132;-90
2022/09/26 04:19:01;;;;;;;0.60;0.60;;;;;;;;;;7397345;19;20137;-90
2022/09/26 04:21:28;;;;;;;0.30;0.30;;;;;;;;;;7400855;19;20124;-91
2022/09/26 04:23:53;;;;;;;0.20;0.20;;;;;;;;;;7398358;19;20117;-91
2022/09/26 04:26:19;;;;;;;0.30;0.30;;;;;;;;;;7401398;19;20129;-91
2022/09/26 04:28:46;;;;;;;0.30;0.30;;;;;;;;;;7402692;19;20113;-90
2022/09/26 04:31:11;;;;;;;0.30;0.30;;;;;;;;;;7398237;19;20140;-92
2022/09/26 04:33:38;;;;;;;0.40;0.40;;;;;;;;;;7396340;19;20253;-91
2022/09/26 04:36:06;;;;;;;0.30;0.30;;;;;;;;;;7395862;19;20117;-90
2022/09/26 04:38:32;;;;;;;0.30;0.30;;;;;;;;;;7395027;19;20109;-91
2022/09/26 04:41:11;;;;;;;0.30;0.30;;;;;;;;;;7393186;19;21206;-90
2022/09/26 04:43:36;;;;;;;0.30;0.30;;;;;;;;;;7391725;19;20149;-94
2022/09/26 04:46:07;;;;;;;0.30;0.30;;;;;;;;;;7395124;19;20146;-92
2022/09/26 04:48:32;;;;;;;0.30;0.30;;;;;;;;;;7399269;19;20513;-90
2022/09/26 04:50:58;;;;;;;0.30;0.30;;;;;;;;;;7394201;19;20117;-90
2022/09/26 04:53:23;;;;;;;0.30;0.30;;;;;;;;;;7395613;19;20506;-92
2022/09/26 04:55:48;;;;;;;0.30;0.30;;;;;;;;;;7392466;19;20584;-93
2022/09/26 04:58:14;;;;;;;0.30;0.30;;;;;;;;;;7395024;19;20700;-91
2022/09/26 05:00:44;;;;;;;0.30;0.30;;;;;;;;;;7393508;19;20119;-91
2022/09/26 05:03:12;;;;;;;0.40;0.40;;;;;;;;;;7393668;19;20152;-92
2022/09/26 05:05:49;;;;;;;0.30;0.30;;;;;;;;;;7392656;19;20093;-90
2022/09/26 05:08:15;;;;;;;0.30;0.30;;;;;;;;;;7397393;19;20116;-91
2022/09/26 05:10:41;;;;;;;0.30;0.30;;;;;;;;;;7398001;19;20136;-90
2022/09/26 05:13:06;;;;;;;0.50;0.50;;;;;;;;;;7397478;19;20171;-90
2022/09/26 05:15:38;;;;;;;0.20;0.20;;;;;;;;;;7392583;19;20427;-90
2022/09/26 05:18:06;;;;;;;0.40;0.40;;;;;;;;;;7398585;19;20133;-92
2022/09/26 05:20:32;;;;;;;0.63;0.63;;;;;;;;;;7395756;19;20577;-91
2022/09/26 05:22:58;;;;;;;0.30;0.30;;;;;;;;;;7396096;19;20137;-90
2022/09/26 05:28:07;;;;;;;0.30;0.30;;;;;;;;;;7395145;19;20645;-90
2022/09/26 05:30:34;;;;;;;0.30;0.30;;;;;;;;;;7396389;19;20125;-93
2022/09/26 05:32:59;;;;;;;0.27;0.27;;;;;;;;;;7394196;19;20113;-92
2022/09/26 05:35:33;;;;;;;0.30;0.30;;;;;;;;;;7394724;19;20140;-91
2022/09/26 05:38:00;;;;;;;0.30;0.30;;;;;;;;;;7397784;19;20624;-91
2022/09/26 05:43:26;;;;;;;0.30;0.30;;;;;;;;;;7396955;19;20132;-93
2022/09/26 05:46:02;;;;;;;0.30;0.30;;;;;;;;;;7396712;19;20125;-91
2022/09/26 05:48:29;;;;;;;0.30;0.30;;;;;;;;;;7396865;19;20132;-93
2022/09/26 05:50:54;;;;;;;0.30;0.30;;;;;;;;;;7388547;19;20220;-72
2022/09/26 05:53:20;;;;;;;0.30;0.30;;;;;;;;;;7375832;19;20529;-73
2022/09/26 05:55:49;;;;;;;0.47;0.47;;;;;;;;;;7374521;19;20741;-73
2022/09/26 05:58:17;;;;;;;0.30;0.30;;;;;;;;;;7376072;19;20138;-73
2022/09/26 06:00:43;;;;;;;0.30;0.30;;;;;;;;;;7380535;19;20131;-73
2022/09/26 06:03:09;;;;;;;0.27;0.27;;;;;;;;;;7380412;19;20181;-73
2022/09/26 06:05:34;;;;;;;0.30;0.30;;;;;;;;;;7378779;19;20118;-73
2022/09/26 06:08:02;;;;;;;0.23;0.23;;;;;;;;;;7376874;19;20188;-73
2022/09/26 06:10:28;;;;;;;0.30;0.30;;;;;;;;;;7375580;19;20129;-73
2022/09/26 06:12:54;;;;;;;0.30;0.30;;;;;;;;;;7375598;19;20114;-73
2022/09/26 06:15:19;;;;;;;1.37;1.23;;;;;;;;;;7372993;19;20165;-73
2022/09/26 06:17:46;;;;;;;0.23;0.23;;;;;;;;;;7376264;19;20507;-73
2022/09/26 06:20:14;;;;;;;0.20;0.20;;;;;;;;;;7365295;19;20137;-73
2022/09/26 06:22:41;;;;;;;0.30;0.30;;;;;;;;;;7374486;19;20156;-73
2022/09/26 06:25:09;;;;;;;0.30;0.30;;;;;;;;;;7369363;19;20153;-73
2022/09/26 06:27:37;;;;;;;0.30;0.30;;;;;;;;;;7366813;19;20125;-73
2022/09/26 06:30:05;;;;;;;0.20;0.20;;;;;;;;;;7376627;19;20105;-73
2022/09/26 06:32:30;;;;;;;0.30;0.30;;;;;;;;;;7381652;19;20166;-73
2022/09/26 06:34:56;;;;;;;0.30;0.30;;;;;;;;;;7378552;19;20508;-73
2022/09/26 06:37:22;;;;;;;0.40;0.40;;;;;;;;;;7380360;19;20156;-73
2022/09/26 06:39:47;;;;;;;0.30;0.30;;;;;;;;;;7377118;19;20117;-73
2022/09/26 06:42:13;;;;;;;0.30;0.30;;;;;;;;;;7379545;19;20105;-73
2022/09/26 06:44:38;;;;;;;0.30;0.30;;;;;;;;;;7376905;19;20502;-73
2022/09/26 06:47:04;;;;;;;0.40;0.40;;;;;;;;;;7378994;19;20144;-73
2022/09/26 06:49:29;;;;;;;0.30;0.30;;;;;;;;;;7381073;19;20109;-73
2022/09/26 06:51:54;;;;;;;0.30;0.30;;;;;;;;;;7380436;19;20118;-73
2022/09/26 06:54:20;;;;;;;0.30;0.30;;;;;;;;;;7378501;19;21058;-73
2022/09/26 06:56:45;;;;;;;0.30;0.30;;;;;;;;;;7375332;19;20126;-73
2022/09/26 06:59:11;;;;;;;0.67;0.67;;;;;;;;;;7376861;19;20113;-73
2022/09/26 07:01:37;;;;;;;0.40;0.40;;;;;;;;;;7373012;19;20121;-73
2022/09/26 07:04:02;;;;;;;0.30;0.30;;;;;;;;;;7378368;19;20142;-73
2022/09/26 07:06:28;;;;;;;2.93;0.90;;;;;;;;;;7375935;19;20493;-73
2022/09/26 07:08:53;;;;;;;0.30;0.30;;;;;;;;;;7382700;19;20109;-73
2022/09/26 07:11:18;;;;;;;0.30;0.30;;;;;;;;;;7377175;19;20132;-73
2022/09/26 07:13:44;;;;;;;0.30;0.30;;;;;;;;;;7371289;19;20921;-73
2022/09/26 07:16:11;;;;;;;0.30;0.30;;;;;;;;;;7378978;19;20475;-73
2022/09/26 07:18:37;;;;;;;0.30;0.30;;;;;;;;;;7377670;19;20113;-73
2022/09/26 07:21:06;;;;;;;0.27;0.27;;;;;;;;;;7377020;19;20105;-73
2022/09/26 07:23:32;;;;;;;0.30;0.30;;;;;;;;;;7379165;19;20125;-73
2022/09/26 07:25:58;;;;;;;0.20;0.20;;;;;;;;;;7373170;19;20116;-73
2022/09/26 07:28:24;;;;;;;0.30;0.30;;;;;;;;;;7374506;19;20600;-73
2022/09/26 07:30:50;;;;;;;0.40;0.40;;;;;;;;;;7377927;19;20213;-73
2022/09/26 07:33:15;;;;;;;0.30;0.30;;;;;;;;;;7378752;19;20563;-73
2022/09/26 07:35:43;;;;;;;0.30;0.30;;;;;;;;;;7376415;19;20125;-73
2022/09/26 07:38:08;;;;;;;0.30;0.30;;;;;;;;;;7385839;19;20110;-73
2022/09/26 07:40:34;;;;;;;0.30;0.30;;;;;;;;;;7380573;19;20202;-73
2022/09/26 07:43:00;;;;;;;0.43;0.40;;;;;;;;;;7386753;19;20109;-73
2022/09/26 07:50:58;;;;;;;2.10;1.50;;;;;;;;;;7384408;19;20124;-73
2022/09/26 07:53:25;;;;;;;0.40;0.40;;;;;;;;;;7384818;19;20141;-73
2022/09/26 07:56:09;;;;;;;0.30;0.30;;;;;;;;;;7382782;19;20627;-73
2022/09/26 07:58:37;;;;;;;0.30;0.30;;;;;;;;;;7387737;19;20109;-73
2022/09/26 08:01:03;;;;;;;0.40;0.40;;;;;;;;;;7385415;19;20128;-73
2022/09/26 08:03:28;;;;;;;0.40;0.40;;;;;;;;;;7383433;19;20156;-73
2022/09/26 08:06:00;;;;;;;0.30;0.30;;;;;;;;;;7386521;19;20105;-73
2022/09/26 08:08:26;;;;;;;0.30;0.30;;;;;;;;;;7385571;19;20122;-73
2022/09/26 08:10:51;;;;;;;0.30;0.30;;;;;;;;;;7383455;19;20121;-73
2022/09/26 08:13:17;;;;;;;0.30;0.30;;;;;;;;;;7386426;19;20105;-73
2022/09/26 08:15:42;;;;;;;0.67;0.67;;;;;;;;;;7381016;19;20449;-73
2022/09/26 08:18:07;;;;;;;0.30;0.30;;;;;;;;;;7369457;19;20131;-73
2022/09/26 08:20:33;;;;;;;0.30;0.30;;;;;;;;;;7378591;19;20176;-73
2022/09/26 08:22:58;;;;;;;0.30;0.30;;;;;;;;;;7383168;19;20167;-73
2022/09/26 08:25:24;;;;;;;0.60;0.60;;;;;;;;;;7378598;19;20157;-73
2022/09/26 08:27:50;;;;;;;0.30;0.30;;;;;;;;;;7383344;19;20180;-73
2022/09/26 08:30:16;;;;;;;0.30;0.30;;;;;;;;;;7378227;19;20126;-73
2022/09/26 08:32:41;;;;;;;0.30;0.30;;;;;;;;;;7386787;19;20150;-73
2022/09/26 08:35:10;;;;;;;0.83;0.83;;;;;;;;;;7380906;19;20453;-73
2022/09/26 08:37:36;;;;;;;0.30;0.30;;;;;;;;;;7382323;19;20101;-73
2022/09/26 08:40:01;;;;;;;0.30;0.30;;;;;;;;;;7384348;19;20188;-73
2022/09/26 08:42:51;;;;;;;0.35;0.35;;;;;;;;;;7380375;19;20101;-73
2022/09/26 08:48:31;;;;;;;0.88;0.88;;;;;;;;;;7379138;19;20129;-73
2022/09/26 08:51:02;;;;;;;0.43;0.43;;;;;;;;;;7378682;19;20117;-73
2022/09/26 08:53:42;;;;;;;0.70;0.70;;;;;;;;;;7380246;19;20133;-73
2022/09/26 08:56:18;;;;;;;0.30;0.30;;;;;;;;;;7380867;19;20117;-73
2022/09/26 08:58:44;;;;;;;0.30;0.30;;;;;;;;;;7383801;19;20125;-73
2022/09/26 09:01:23;;;;;;;2.92;1.00;;;;;;;;;;7377523;19;20110;-73
2022/09/26 09:04:04;;;;;;;0.30;0.30;;;;;;;;;;7380621;19;20416;-73
2022/09/26 09:06:29;;;;;;;0.30;0.30;;;;;;;;;;7385016;19;20112;-73
2022/09/26 09:08:55;;;;;;;0.75;0.75;;;;;;;;;;7376262;19;20102;-73
2022/09/26 09:11:39;;;;;;;0.30;0.30;;;;;;;;;;7377815;19;20121;-73
2022/09/26 09:14:13;;;;;;;0.30;0.30;;;;;;;;;;7382788;19;20121;-73
2022/09/26 09:17:03;;;;;;;0.52;0.52;;;;;;;;;;7382376;19;20105;-73
2022/09/26 09:19:41;;;;;;;0.30;0.30;;;;;;;;;;7379931;19;20117;-73
2022/09/26 09:22:31;;;;;;;0.60;0.60;;;;;;;;;;7379761;19;20717;-73
2022/09/26 09:24:59;;;;;;;0.95;0.95;;;;;;;;;;7381171;19;20587;-73
2022/09/26 09:28:15;;;;;;;0.30;0.30;;;;;;;;;;7381660;19;20117;-73
2022/09/26 09:30:44;;;;;;;0.30;0.30;;;;;;;;;;7377819;19;20117;-73
2022/09/26 09:33:13;;;;;;;0.20;0.20;;;;;;;;;;7383205;19;20105;-73
2022/09/26 09:35:39;;;;;;;0.30;0.30;;;;;;;;;;7382683;19;20105;-73
2022/09/26 09:38:06;;;;;;;0.75;0.75;;;;;;;;;;7385143;19;20560;-73
2022/09/26 09:40:39;;;;;;;0.35;0.35;;;;;;;;;;7375053;19;20126;-73
2022/09/26 09:43:10;;;;;;;0.40;0.40;;;;;;;;;;7380426;19;20606;-73
2022/09/26 09:45:58;;;;;;;0.30;0.30;;;;;;;;;;7381825;19;20109;-73
2022/09/26 09:48:26;;;;;;;0.30;0.30;;;;;;;;;;7381849;19;20584;-73
2022/09/26 09:51:17;;;;;;;0.32;0.32;;;;;;;;;;7377513;19;20113;-73
2022/09/26 09:53:59;;;;;;;0.30;0.30;;;;;;;;;;7379569;19;20121;-75
2022/09/26 09:56:36;;;;;;;0.82;0.82;;;;;;;;;;7379127;19;20118;-73
2022/09/26 09:59:10;;;;;;;0.40;0.40;;;;;;;;;;7381161;19;20148;-73
2022/09/26 10:01:40;;;;;;;0.38;0.38;;;;;;;;;;7377741;19;20127;-73
2022/09/26 10:04:11;;;;;;;0.30;0.30;;;;;;;;;;7382020;19;20133;-73
2022/09/26 10:06:36;;;;;;;0.80;0.80;;;;;;;;;;7383124;19;20116;-73
2022/09/26 10:09:30;;;;;;;0.30;0.30;;;;;;;;;;7380843;19;20462;-73
2022/09/26 10:11:55;;;;;;;1.25;1.25;;;;;;;;;;7382935;19;20595;-73
2022/09/26 10:14:27;;;;;;;0.45;0.45;;;;;;;;;;7379751;19;20133;-73
2022/09/26 10:17:08;;;;;;;0.32;0.32;;;;;;;;;;7380766;19;20104;-72
2022/09/26 10:19:36;;;;;;;0.30;0.30;;;;;;;;;;7383405;19;20105;-72
2022/09/26 10:22:02;;;;;;;0.30;0.30;;;;;;;;;;7378629;19;20108;-72
2022/09/26 10:24:39;;;;;;;0.30;0.30;;;;;;;;;;7377933;19;20880;-72
2022/09/26 10:27:34;;;;;;;0.30;0.30;;;;;;;;;;7379645;19;20120;-72
2022/09/26 10:30:24;;;;;;;0.30;0.30;;;;;;;;;;7383126;19;20399;-72
2022/09/26 10:32:53;;;;;;;0.30;0.30;;;;;;;;;;7380850;19;20147;-73
2022/09/26 10:35:23;;;;;;;0.30;0.30;;;;;;;;;;7378819;19;20125;-72
2022/09/26 10:37:57;;;;;;;0.40;0.40;;;;;;;;;;7381905;19;20149;-72
2022/09/26 10:40:44;;;;;;;0.35;0.35;;;;;;;;;;7379775;19;20104;-73
2022/09/26 10:43:27;;;;;;;0.20;0.20;;;;;;;;;;7384522;19;20583;-73
2022/09/26 10:46:10;;;;;;;0.32;0.32;;;;;;;;;;7381868;19;20121;-73
2022/09/26 10:48:47;;;;;;;0.30;0.30;;;;;;;;;;7375689;19;20669;-73
2022/09/26 10:51:38;;;;;;;0.30;0.30;;;;;;;;;;7376721;19;20141;-73
2022/09/26 10:54:15;;;;;;;0.30;0.30;;;;;;;;;;7380580;19;20149;-73
2022/09/26 10:56:44;;;;;;;0.30;0.30;;;;;;;;;;7375581;19;20186;-73
2022/09/26 10:59:12;;;;;;;0.30;0.30;;;;;;;;;;7377372;19;20117;-73
2022/09/26 11:01:44;;;;;;;0.45;0.45;;;;;;;;;;7376188;19;20135;-73
2022/09/26 11:07:24;;;;;;;0.30;0.30;;;;;;;;;;7373042;19;20121;-73
2022/09/26 11:09:58;;;;;;;0.30;0.30;;;;;;;;;;7380246;19;20111;-73
2022/09/26 11:12:29;;;;;;;0.55;0.55;;;;;;;;;;7384471;19;20196;-73
2022/09/26 11:14:57;;;;;;;0.30;0.30;;;;;;;;;;7382991;19;20121;-73
2022/09/26 11:17:42;;;;;;;0.30;0.30;;;;;;;;;;7380442;19;20130;-73
2022/09/26 11:20:10;;;;;;;0.35;0.35;;;;;;;;;;7383885;19;20448;-73
2022/09/26 11:22:41;;;;;;;0.30;0.30;;;;;;;;;;7388065;19;20565;-73
2022/09/26 11:25:24;;;;;;;0.88;0.88;;;;;;;;;;7382166;19;20125;-73
2022/09/26 11:28:07;;;;;;;0.30;0.30;;;;;;;;;;7386411;19;20137;-74
2022/09/26 11:30:36;;;;;;;0.40;0.40;;;;;;;;;;7383998;19;20113;-74
2022/09/26 11:33:07;;;;;;;0.30;0.30;;;;;;;;;;7378799;19;20134;-74
2022/09/26 11:35:51;;;;;;;0.50;0.50;;;;;;;;;;7378232;19;20146;-74
2022/09/26 11:38:39;;;;;;;0.40;0.40;;;;;;;;;;7383790;19;20182;-74
2022/09/26 11:41:35;;;;;;;0.30;0.30;;;;;;;;;;7383258;19;20611;-74
2022/09/26 11:44:28;;;;;;;0.32;0.32;;;;;;;;;;7377436;19;20621;-73
2022/09/26 11:47:12;;;;;;;0.20;0.20;;;;;;;;;;7385363;19;20113;-73
2022/09/26 11:49:43;;;;;;;0.30;0.30;;;;;;;;;;7382210;19;20117;-73
2022/09/26 11:52:30;;;;;;;0.20;0.20;;;;;;;;;;7380417;19;20105;-73
2022/09/26 11:55:19;;;;;;;0.30;0.30;;;;;;;;;;7379767;19;20602;-73
2022/09/26 11:57:56;;;;;;;0.30;0.30;;;;;;;;;;7381023;19;20717;-74
2022/09/26 12:00:25;;;;;;;0.30;0.30;;;;;;;;;;7378487;19;20225;-74
2022/09/26 12:03:09;;;;;;;1.35;0.73;;;;;;;;;;7381925;19;20643;-74
2022/09/26 12:06:15;;;;;;;0.30;0.30;;;;;;;;;;7382229;19;20151;-74
2022/09/26 12:08:59;;;;;;;0.30;0.30;;;;;;;;;;7381468;19;20129;-74
2022/09/26 12:11:46;;;;;;;0.30;0.30;;;;;;;;;;7382100;19;20109;-74
2022/09/26 12:14:15;;;;;;;0.30;0.30;;;;;;;;;;7379968;19;20125;-74
2022/09/26 12:16:53;;;;;;;0.30;0.30;;;;;;;;;;7380345;19;20630;-73
2022/09/26 12:19:44;;;;;;;0.30;0.30;;;;;;;;;;7386879;19;20124;-73
2022/09/26 12:22:39;;;;;;;0.30;0.30;;;;;;;;;;7380879;19;20124;-73
2022/09/26 12:25:06;;;;;;;0.40;0.40;;;;;;;;;;7378891;19;20157;-73
2022/09/26 12:27:49;;;;;;;0.30;0.30;;;;;;;;;;7384207;19;20141;-73
2022/09/26 12:30:27;;;;;;;0.30;0.30;;;;;;;;;;7384765;19;20124;-73
2022/09/26 12:33:48;;;;;;;0.30;0.30;;;;;;;;;;7380544;19;20105;-74
2022/09/26 12:36:21;;;;;;;0.30;0.30;;;;;;;;;;7354939;19;20715;-73
2022/09/26 12:39:20;;;;;;;0.40;0.40;;;;;;;;;;7372800;19;20109;-73
2022/09/26 12:41:58;;;;;;;1.42;0.40;;;;;;;;;;7375310;19;20113;-73
2022/09/26 12:44:32;;;;;;;0.30;0.30;;;;;;;;;;7380146;19;20585;-73
2022/09/26 12:47:39;;;;;;;0.28;0.28;;;;;;;;;;7377341;19;20192;-73
2022/09/26 12:50:39;;;;;;;0.30;0.30;;;;;;;;;;7376650;19;20129;-73
2022/09/26 12:53:43;;;;;;;0.20;0.20;;;;;;;;;;7377890;19;20204;-73
2022/09/26 12:56:14;;;;;;;0.30;0.30;;;;;;;;;;7371354;19;20120;-73
2022/09/26 12:59:03;;;;;;;0.30;0.30;;;;;;;;;;7378904;19;20108;-73
2022/09/26 13:01:36;;;;;;;0.30;0.30;;;;;;;;;;7384497;19;20125;-73
2022/09/26 13:04:20;;;;;;;0.30;0.30;;;;;;;;;;7383344;19;20125;-73
2022/09/26 13:06:55;;;;;;;0.30;0.30;;;;;;;;;;7387685;19;20105;-73
2022/09/26 13:09:38;;;;;;;0.30;0.30;;;;;;;;;;7386730;19;20471;-73
2022/09/26 13:12:20;;;;;;;0.30;0.30;;;;;;;;;;7384403;19;20121;-73
2022/09/26 13:15:14;;;;;;;0.30;0.30;;;;;;;;;;7382383;19;20122;-73
2022/09/26 13:17:44;;;;;;;0.30;0.30;;;;;;;;;;7384871;19;20117;-73
2022/09/26 13:20:17;;;;;;;0.30;0.30;;;;;;;;;;7383797;19;20469;-73
2022/09/26 13:22:48;;;;;;;0.30;0.30;;;;;;;;;;7386675;19;20211;-73
2022/09/26 13:25:25;;;;;;;0.30;0.30;;;;;;;;;;7380588;19;20378;-73
2022/09/26 13:27:59;;;;;;;0.30;0.30;;;;;;;;;;7382746;19;20121;-73
2022/09/26 13:30:28;;;;;;;0.30;0.30;;;;;;;;;;7385167;19;20584;-73
2022/09/26 13:33:17;;;;;;;2.17;1.25;;;;;;;;;;7383939;19;20217;-73
2022/09/26 13:35:46;;;;;;;0.30;0.30;;;;;;;;;;7382842;19;20110;-73
2022/09/26 13:38:47;;;;;;;0.35;0.35;;;;;;;;;;7382678;19;20123;-73
2022/09/26 13:41:28;;;;;;;0.40;0.40;;;;;;;;;;7379788;19;20123;-73
2022/09/26 13:44:04;;;;;;;0.30;0.30;;;;;;;;;;7384539;19;20121;-73
2022/09/26 13:46:35;;;;;;;0.30;0.30;;;;;;;;;;7383902;19;20461;-73
2022/09/26 13:49:29;;;;;;;0.30;0.30;;;;;;;;;;7381820;19;20776;-74
2022/09/26 13:52:18;;;;;;;0.30;0.30;;;;;;;;;;7379567;19;20188;-73
2022/09/26 13:54:52;;;;;;;0.30;0.30;;;;;;;;;;7375864;19;20509;-73
2022/09/26 13:57:33;;;;;;;0.30;0.30;;;;;;;;;;7380479;19;20143;-73
2022/09/26 14:00:00;;;;;;;0.30;0.30;;;;;;;;;;7377638;19;20576;-73
2022/09/26 14:02:30;;;;;;;0.30;0.30;;;;;;;;;;7380043;19;20117;-73
2022/09/26 14:05:01;;;;;;;0.30;0.30;;;;;;;;;;7374385;19;21049;-73
2022/09/26 14:10:26;;;;;;;0.30;0.30;;;;;;;;;;7382767;19;20492;-73
2022/09/26 14:15:27;;;;;;;0.30;0.30;;;;;;;;;;7374977;19;20129;-72
2022/09/26 14:18:02;;;;;;;0.30;0.30;;;;;;;;;;7380394;19;20113;-72
2022/09/26 15:55:32;;;;;;;0.30;0.30;;;;;;;;;;7383905;19;20202;-72
2022/09/26 15:58:00;;;;;;;0.30;0.30;;;;;;;;;;7388353;19;20125;-72
2022/09/26 16:00:29;;;;;;;0.32;0.32;;;;;;;;;;7384481;19;20109;-74
2022/09/26 16:02:55;;;;;;;0.30;0.30;;;;;;;;;;7383138;19;20149;-73
2022/09/26 16:05:21;;;;;;;0.30;0.30;;;;;;;;;;7385076;19;20537;-73
2022/09/26 16:07:49;;;;;;;0.30;0.30;;;;;;;;;;7379481;19;20216;-73
2022/09/26 16:10:27;;;;;;;0.30;0.30;;;;;;;;;;7384229;19;20133;-73
2022/09/26 16:12:53;;;;;;;0.30;0.30;;;;;;;;;;7381139;19;20117;-73
2022/09/26 16:15:26;;;;;;;0.30;0.30;;;;;;;;;;7382885;19;20583;-73
2022/09/26 16:17:53;;;;;;;0.68;0.68;;;;;;;;;;7381138;19;20158;-73
2022/09/26 16:20:19;;;;;;;0.30;0.30;;;;;;;;;;7376562;19;20510;-73
2022/09/26 16:22:49;;;;;;;0.30;0.30;;;;;;;;;;7378035;19;20563;-74
2022/09/26 16:25:18;;;;;;;0.40;0.40;;;;;;;;;;7374906;19;20573;-73
2022/09/26 16:27:57;;;;;;;0.30;0.30;;;;;;;;;;7363751;19;20121;-73
2022/09/26 16:30:22;;;;;;;0.30;0.30;;;;;;;;;;7370252;19;20125;-74
2022/09/26 16:33:06;;;;;;;0.30;0.30;;;;;;;;;;7370627;19;20125;-74
2022/09/26 16:36:22;;;;;;;0.30;0.30;;;;;;;;;;7374309;19;20155;-73
2022/09/26 16:38:53;;;;;;;0.30;0.30;;;;;;;;;;7368144;19;20622;-73
2022/09/26 16:41:23;;;;;;;0.30;0.30;;;;;;;;;;7359016;19;20127;-74
2022/09/26 16:44:26;;;;;;;0.30;0.30;;;;;;;;;;7364226;19;20603;-73
2022/09/26 16:46:58;;;;;;;0.20;0.20;;;;;;;;;;7361835;19;20320;-74
2022/09/26 16:49:39;;;;;;;0.30;0.30;;;;;;;;;;7367015;19;20579;-74
2022/09/26 16:52:09;;;;;;;0.30;0.30;;;;;;;;;;7365206;19;20485;-73
2022/09/26 16:54:35;;;;;;;0.30;0.30;;;;;;;;;;7363541;19;20129;-73
2022/09/26 16:57:00;;;;;;;0.40;0.40;;;;;;;;;;7366706;19;20536;-73
2022/09/26 16:59:27;;;;;;;0.30;0.30;;;;;;;;;;7375894;19;20431;-74
2022/09/26 17:01:55;;;;;;;0.30;0.30;;;;;;;;;;7372195;19;20116;-73
2022/09/26 17:04:24;;;;;;;0.30;0.30;;;;;;;;;;7375359;19;20199;-74
2022/09/26 17:06:50;;;;;;;0.30;0.30;;;;;;;;;;7376096;19;20117;-73
2022/09/26 17:09:21;;;;;;;0.30;0.30;;;;;;;;;;7369184;19;20122;-73
2022/09/26 17:11:49;;;;;;;0.30;0.30;;;;;;;;;;7358011;19;20105;-73
2022/09/26 17:14:18;;;;;;;0.30;0.30;;;;;;;;;;7365060;19;20184;-73